sensor_id;sensor_type;location;lat;lon;timestamp;P1;durP1;ratioP1;P2;durP2;ratioP2
44664;SDS011;30382;48.802;9.388;2022-10-30T00:01:50;6.50;;;5.20;;
44664;SDS011;30382;48.802;9.388;2022-10-30T00:04:34;12.60;;;7.60;;
44664;SDS011;30382;48.802;9.388;2022-10-30T00:07:18;8.60;;;5.93;;
44664;SDS011;30382;48.802;9.388;2022-10-30T00:10:03;9.63;;;6.90;;
44664;SDS011;30382;48.802;9.388;2022-10-30T00:12:48;10.97;;;5.73;;
44664;SDS011;30382;48.802;9.388;2022-10-30T00:15:32;11.30;;;6.30;;
44664;SDS011;30382;48.802;9.388;2022-10-30T00:18:17;9.30;;;5.77;;
44664;SDS011;30382;48.802;9.388;2022-10-30T00:21:08;12.97;;;6.37;;
44664;SDS011;30382;48.802;9.388;2022-10-30T00:23:52;10.70;;;6.20;;
44664;SDS011;30382;48.802;9.388;2022-10-30T00:26:37;13.63;;;6.27;;
44664;SDS011;30382;48.802;9.388;2022-10-30T00:29:21;7.27;;;5.40;;
44664;SDS011;30382;48.802;9.388;2022-10-30T00:32:08;8.83;;;5.50;;
44664;SDS011;30382;48.802;9.388;2022-10-30T00:34:52;9.47;;;6.10;;
44664;SDS011;30382;48.802;9.388;2022-10-30T00:37:36;7.63;;;6.40;;
44664;SDS011;30382;48.802;9.388;2022-10-30T00:40:21;14.57;;;6.50;;
44664;SDS011;30382;48.802;9.388;2022-10-30T00:43:25;9.23;;;5.07;;
44664;SDS011;30382;48.802;9.388;2022-10-30T00:46:27;8.93;;;5.90;;
44664;SDS011;30382;48.802;9.388;2022-10-30T00:49:14;11.40;;;6.37;;
44664;SDS011;30382;48.802;9.388;2022-10-30T00:51:59;8.90;;;6.10;;
44664;SDS011;30382;48.802;9.388;2022-10-30T00:54:45;10.40;;;6.30;;
44664;SDS011;30382;48.802;9.388;2022-10-30T00:57:30;11.90;;;6.20;;
44664;SDS011;30382;48.802;9.388;2022-10-30T01:00:15;11.90;;;6.07;;
44664;SDS011;30382;48.802;9.388;2022-10-30T01:03:00;7.67;;;5.67;;
44664;SDS011;30382;48.802;9.388;2022-10-30T01:05:44;8.80;;;5.23;;
44664;SDS011;30382;48.802;9.388;2022-10-30T01:08:31;11.00;;;5.97;;
44664;SDS011;30382;48.802;9.388;2022-10-30T01:11:16;11.23;;;6.73;;
44664;SDS011;30382;48.802;9.388;2022-10-30T01:14:01;7.37;;;6.13;;
44664;SDS011;30382;48.802;9.388;2022-10-30T01:17:01;9.43;;;7.03;;
44664;SDS011;30382;48.802;9.388;2022-10-30T01:19:55;13.97;;;6.90;;
44664;SDS011;30382;48.802;9.388;2022-10-30T01:31:27;8.17;;;6.00;;
44664;SDS011;30382;48.802;9.388;2022-10-30T01:34:29;11.17;;;6.50;;
44664;SDS011;30382;48.802;9.388;2022-10-30T01:37:18;16.43;;;6.10;;
44664;SDS011;30382;48.802;9.388;2022-10-30T01:40:08;7.43;;;5.50;;
44664;SDS011;30382;48.802;9.388;2022-10-30T01:42:55;10.73;;;6.20;;
44664;SDS011;30382;48.802;9.388;2022-10-30T01:48:32;11.77;;;5.77;;
44664;SDS011;30382;48.802;9.388;2022-10-30T01:54:46;8.17;;;7.37;;
44664;SDS011;30382;48.802;9.388;2022-10-30T02:00:21;14.73;;;6.47;;
44664;SDS011;30382;48.802;9.388;2022-10-30T02:03:06;10.07;;;6.70;;
44664;SDS011;30382;48.802;9.388;2022-10-30T02:05:51;18.93;;;8.03;;
44664;SDS011;30382;48.802;9.388;2022-10-30T02:08:36;14.00;;;6.30;;
44664;SDS011;30382;48.802;9.388;2022-10-30T02:11:21;9.07;;;6.33;;
44664;SDS011;30382;48.802;9.388;2022-10-30T02:14:06;12.80;;;6.80;;
44664;SDS011;30382;48.802;9.388;2022-10-30T02:16:53;12.47;;;6.37;;
44664;SDS011;30382;48.802;9.388;2022-10-30T02:19:39;10.27;;;5.80;;
44664;SDS011;30382;48.802;9.388;2022-10-30T02:22:24;11.27;;;5.93;;
44664;SDS011;30382;48.802;9.388;2022-10-30T02:25:08;6.27;;;5.53;;
44664;SDS011;30382;48.802;9.388;2022-10-30T02:27:52;9.47;;;6.03;;
44664;SDS011;30382;48.802;9.388;2022-10-30T02:30:37;9.63;;;6.57;;
44664;SDS011;30382;48.802;9.388;2022-10-30T02:33:22;8.53;;;6.37;;
44664;SDS011;30382;48.802;9.388;2022-10-30T02:36:07;11.50;;;6.67;;
44664;SDS011;30382;48.802;9.388;2022-10-30T02:38:51;8.90;;;5.57;;
44664;SDS011;30382;48.802;9.388;2022-10-30T02:41:37;7.03;;;6.33;;
44664;SDS011;30382;48.802;9.388;2022-10-30T02:44:22;8.47;;;5.60;;
44664;SDS011;30382;48.802;9.388;2022-10-30T02:47:06;7.80;;;6.23;;
44664;SDS011;30382;48.802;9.388;2022-10-30T02:49:51;8.93;;;5.97;;
44664;SDS011;30382;48.802;9.388;2022-10-30T02:52:35;14.97;;;6.40;;
44664;SDS011;30382;48.802;9.388;2022-10-30T02:55:19;8.80;;;5.57;;
44664;SDS011;30382;48.802;9.388;2022-10-30T02:58:05;9.03;;;6.13;;
44664;SDS011;30382;48.802;9.388;2022-10-30T03:00:49;9.10;;;6.50;;
44664;SDS011;30382;48.802;9.388;2022-10-30T03:03:33;7.37;;;6.00;;
44664;SDS011;30382;48.802;9.388;2022-10-30T03:06:17;13.03;;;6.37;;
44664;SDS011;30382;48.802;9.388;2022-10-30T03:09:02;9.87;;;6.40;;
44664;SDS011;30382;48.802;9.388;2022-10-30T03:11:46;12.03;;;6.37;;
44664;SDS011;30382;48.802;9.388;2022-10-30T03:14:32;10.57;;;6.50;;
44664;SDS011;30382;48.802;9.388;2022-10-30T03:17:16;7.60;;;6.50;;
44664;SDS011;30382;48.802;9.388;2022-10-30T03:20:01;13.40;;;6.53;;
44664;SDS011;30382;48.802;9.388;2022-10-30T03:22:45;9.07;;;6.10;;
44664;SDS011;30382;48.802;9.388;2022-10-30T03:25:29;5.87;;;5.13;;
44664;SDS011;30382;48.802;9.388;2022-10-30T03:28:17;7.03;;;5.87;;
44664;SDS011;30382;48.802;9.388;2022-10-30T03:31:05;9.77;;;5.97;;
44664;SDS011;30382;48.802;9.388;2022-10-30T03:33:50;10.83;;;7.10;;
44664;SDS011;30382;48.802;9.388;2022-10-30T03:36:35;10.70;;;5.80;;
44664;SDS011;30382;48.802;9.388;2022-10-30T03:39:19;11.63;;;6.27;;
44664;SDS011;30382;48.802;9.388;2022-10-30T03:42:04;7.70;;;5.70;;
44664;SDS011;30382;48.802;9.388;2022-10-30T03:44:48;8.73;;;6.50;;
44664;SDS011;30382;48.802;9.388;2022-10-30T03:47:33;8.90;;;6.00;;
44664;SDS011;30382;48.802;9.388;2022-10-30T03:50:17;15.17;;;6.00;;
44664;SDS011;30382;48.802;9.388;2022-10-30T03:53:01;10.53;;;6.30;;
44664;SDS011;30382;48.802;9.388;2022-10-30T03:55:46;9.70;;;5.60;;
44664;SDS011;30382;48.802;9.388;2022-10-30T03:58:31;10.90;;;5.97;;
44664;SDS011;30382;48.802;9.388;2022-10-30T04:01:17;10.27;;;6.30;;
44664;SDS011;30382;48.802;9.388;2022-10-30T04:04:05;10.50;;;5.70;;
44664;SDS011;30382;48.802;9.388;2022-10-30T04:06:50;9.33;;;5.40;;
44664;SDS011;30382;48.802;9.388;2022-10-30T04:09:34;9.53;;;5.33;;
44664;SDS011;30382;48.802;9.388;2022-10-30T04:12:18;10.53;;;5.90;;
44664;SDS011;30382;48.802;9.388;2022-10-30T04:15:03;6.03;;;5.43;;
44664;SDS011;30382;48.802;9.388;2022-10-30T04:17:48;12.10;;;6.17;;
44664;SDS011;30382;48.802;9.388;2022-10-30T04:20:33;10.70;;;6.17;;
44664;SDS011;30382;48.802;9.388;2022-10-30T04:23:18;12.93;;;5.20;;
44664;SDS011;30382;48.802;9.388;2022-10-30T04:26:02;6.30;;;5.53;;
44664;SDS011;30382;48.802;9.388;2022-10-30T04:28:47;10.47;;;6.20;;
44664;SDS011;30382;48.802;9.388;2022-10-30T04:31:31;10.83;;;5.80;;
44664;SDS011;30382;48.802;9.388;2022-10-30T04:34:15;9.53;;;5.53;;
44664;SDS011;30382;48.802;9.388;2022-10-30T04:37:00;13.03;;;5.50;;
44664;SDS011;30382;48.802;9.388;2022-10-30T04:39:46;6.00;;;5.20;;
44664;SDS011;30382;48.802;9.388;2022-10-30T04:42:37;11.67;;;6.10;;
44664;SDS011;30382;48.802;9.388;2022-10-30T04:45:21;8.90;;;6.00;;
44664;SDS011;30382;48.802;9.388;2022-10-30T04:48:12;14.50;;;7.07;;
44664;SDS011;30382;48.802;9.388;2022-10-30T04:50:58;8.33;;;6.60;;
44664;SDS011;30382;48.802;9.388;2022-10-30T04:53:44;8.50;;;5.80;;
44664;SDS011;30382;48.802;9.388;2022-10-30T04:56:31;9.80;;;6.00;;
44664;SDS011;30382;48.802;9.388;2022-10-30T04:59:16;11.23;;;5.90;;
44664;SDS011;30382;48.802;9.388;2022-10-30T05:02:02;9.10;;;5.93;;
44664;SDS011;30382;48.802;9.388;2022-10-30T05:04:46;8.30;;;5.30;;
44664;SDS011;30382;48.802;9.388;2022-10-30T05:07:31;10.33;;;5.60;;
44664;SDS011;30382;48.802;9.388;2022-10-30T05:10:15;8.20;;;5.30;;
44664;SDS011;30382;48.802;9.388;2022-10-30T05:13:01;10.20;;;5.00;;
44664;SDS011;30382;48.802;9.388;2022-10-30T05:15:46;8.33;;;5.80;;
44664;SDS011;30382;48.802;9.388;2022-10-30T05:18:30;7.97;;;5.47;;
44664;SDS011;30382;48.802;9.388;2022-10-30T05:21:14;10.90;;;5.30;;
44664;SDS011;30382;48.802;9.388;2022-10-30T05:23:58;10.63;;;5.20;;
44664;SDS011;30382;48.802;9.388;2022-10-30T05:26:44;8.93;;;5.30;;
44664;SDS011;30382;48.802;9.388;2022-10-30T05:29:29;13.30;;;5.30;;
44664;SDS011;30382;48.802;9.388;2022-10-30T05:32:13;10.30;;;5.17;;
44664;SDS011;30382;48.802;9.388;2022-10-30T05:35:01;9.30;;;5.10;;
44664;SDS011;30382;48.802;9.388;2022-10-30T05:37:45;9.83;;;5.93;;
44664;SDS011;30382;48.802;9.388;2022-10-30T05:40:30;9.70;;;5.80;;
44664;SDS011;30382;48.802;9.388;2022-10-30T05:43:15;10.90;;;5.60;;
44664;SDS011;30382;48.802;9.388;2022-10-30T05:45:59;7.37;;;5.43;;
44664;SDS011;30382;48.802;9.388;2022-10-30T05:48:44;9.27;;;4.97;;
44664;SDS011;30382;48.802;9.388;2022-10-30T05:51:29;8.90;;;5.30;;
44664;SDS011;30382;48.802;9.388;2022-10-30T05:54:18;8.23;;;4.70;;
44664;SDS011;30382;48.802;9.388;2022-10-30T05:57:15;8.97;;;5.17;;
44664;SDS011;30382;48.802;9.388;2022-10-30T06:00:01;6.60;;;5.23;;
44664;SDS011;30382;48.802;9.388;2022-10-30T06:02:47;7.33;;;5.13;;
44664;SDS011;30382;48.802;9.388;2022-10-30T06:05:34;9.47;;;4.60;;
44664;SDS011;30382;48.802;9.388;2022-10-30T06:08:19;5.60;;;5.10;;
44664;SDS011;30382;48.802;9.388;2022-10-30T06:11:06;7.90;;;4.90;;
44664;SDS011;30382;48.802;9.388;2022-10-30T06:13:58;8.00;;;5.73;;
44664;SDS011;30382;48.802;9.388;2022-10-30T06:16:54;7.40;;;5.37;;
44664;SDS011;30382;48.802;9.388;2022-10-30T06:20:08;7.90;;;4.70;;
44664;SDS011;30382;48.802;9.388;2022-10-30T06:23:08;10.40;;;5.80;;
44664;SDS011;30382;48.802;9.388;2022-10-30T06:26:07;11.60;;;6.50;;
44664;SDS011;30382;48.802;9.388;2022-10-30T06:29:02;8.67;;;6.17;;
44664;SDS011;30382;48.802;9.388;2022-10-30T06:31:47;7.80;;;6.13;;
44664;SDS011;30382;48.802;9.388;2022-10-30T06:34:31;8.07;;;6.17;;
44664;SDS011;30382;48.802;9.388;2022-10-30T06:37:16;8.87;;;4.77;;
44664;SDS011;30382;48.802;9.388;2022-10-30T06:40:00;10.93;;;5.80;;
44664;SDS011;30382;48.802;9.388;2022-10-30T06:43:20;9.23;;;5.57;;
44664;SDS011;30382;48.802;9.388;2022-10-30T06:46:22;9.13;;;6.20;;
44664;SDS011;30382;48.802;9.388;2022-10-30T06:49:07;8.83;;;6.03;;
44664;SDS011;30382;48.802;9.388;2022-10-30T06:51:51;9.50;;;6.40;;
44664;SDS011;30382;48.802;9.388;2022-10-30T06:54:36;13.23;;;7.80;;
44664;SDS011;30382;48.802;9.388;2022-10-30T06:57:53;13.90;;;7.00;;
44664;SDS011;30382;48.802;9.388;2022-10-30T07:01:01;7.07;;;6.20;;
44664;SDS011;30382;48.802;9.388;2022-10-30T07:04:09;9.87;;;8.13;;
44664;SDS011;30382;48.802;9.388;2022-10-30T07:06:53;15.00;;;8.63;;
44664;SDS011;30382;48.802;9.388;2022-10-30T07:09:39;9.07;;;6.80;;
44664;SDS011;30382;48.802;9.388;2022-10-30T07:12:23;13.87;;;8.17;;
44664;SDS011;30382;48.802;9.388;2022-10-30T07:15:26;17.63;;;6.37;;
44664;SDS011;30382;48.802;9.388;2022-10-30T07:18:23;13.37;;;6.80;;
44664;SDS011;30382;48.802;9.388;2022-10-30T07:21:10;11.30;;;6.30;;
44664;SDS011;30382;48.802;9.388;2022-10-30T07:23:55;12.23;;;7.53;;
44664;SDS011;30382;48.802;9.388;2022-10-30T07:26:45;22.23;;;7.97;;
44664;SDS011;30382;48.802;9.388;2022-10-30T07:29:46;13.30;;;6.30;;
44664;SDS011;30382;48.802;9.388;2022-10-30T07:32:42;8.07;;;6.37;;
44664;SDS011;30382;48.802;9.388;2022-10-30T07:35:31;8.47;;;5.80;;
44664;SDS011;30382;48.802;9.388;2022-10-30T07:38:15;11.70;;;5.97;;
44664;SDS011;30382;48.802;9.388;2022-10-30T07:41:10;9.10;;;6.10;;
44664;SDS011;30382;48.802;9.388;2022-10-30T07:44:06;10.37;;;6.40;;
44664;SDS011;30382;48.802;9.388;2022-10-30T07:47:03;7.57;;;5.40;;
44664;SDS011;30382;48.802;9.388;2022-10-30T07:50:02;7.10;;;5.00;;
44664;SDS011;30382;48.802;9.388;2022-10-30T07:52:50;14.23;;;5.20;;
44664;SDS011;30382;48.802;9.388;2022-10-30T07:55:40;11.13;;;6.00;;
44664;SDS011;30382;48.802;9.388;2022-10-30T07:58:31;11.00;;;5.83;;
44664;SDS011;30382;48.802;9.388;2022-10-30T08:01:52;11.57;;;5.37;;
44664;SDS011;30382;48.802;9.388;2022-10-30T08:04:45;7.57;;;5.43;;
44664;SDS011;30382;48.802;9.388;2022-10-30T08:07:49;6.47;;;5.77;;
44664;SDS011;30382;48.802;9.388;2022-10-30T08:10:33;11.50;;;6.00;;
44664;SDS011;30382;48.802;9.388;2022-10-30T08:13:19;8.63;;;6.20;;
44664;SDS011;30382;48.802;9.388;2022-10-30T08:16:03;9.67;;;5.43;;
44664;SDS011;30382;48.802;9.388;2022-10-30T08:18:48;10.70;;;5.43;;
44664;SDS011;30382;48.802;9.388;2022-10-30T08:21:32;11.20;;;6.23;;
44664;SDS011;30382;48.802;9.388;2022-10-30T08:24:22;11.20;;;5.20;;
44664;SDS011;30382;48.802;9.388;2022-10-30T08:27:08;7.33;;;4.93;;
44664;SDS011;30382;48.802;9.388;2022-10-30T08:29:52;15.10;;;4.90;;
44664;SDS011;30382;48.802;9.388;2022-10-30T08:32:37;12.80;;;5.40;;
44664;SDS011;30382;48.802;9.388;2022-10-30T08:35:47;8.83;;;5.13;;
44664;SDS011;30382;48.802;9.388;2022-10-30T08:38:32;10.27;;;5.23;;
44664;SDS011;30382;48.802;9.388;2022-10-30T08:41:31;8.70;;;4.87;;
44664;SDS011;30382;48.802;9.388;2022-10-30T08:44:15;9.13;;;4.73;;
44664;SDS011;30382;48.802;9.388;2022-10-30T08:47:23;13.80;;;4.70;;
44664;SDS011;30382;48.802;9.388;2022-10-30T08:50:07;9.33;;;4.80;;
44664;SDS011;30382;48.802;9.388;2022-10-30T08:52:52;7.57;;;4.83;;
44664;SDS011;30382;48.802;9.388;2022-10-30T08:55:37;11.17;;;4.53;;
44664;SDS011;30382;48.802;9.388;2022-10-30T08:58:25;8.27;;;3.70;;
44664;SDS011;30382;48.802;9.388;2022-10-30T09:01:10;8.25;;;4.80;;
44664;SDS011;30382;48.802;9.388;2022-10-30T09:04:17;9.57;;;4.53;;
44664;SDS011;30382;48.802;9.388;2022-10-30T09:07:21;8.60;;;4.40;;
44664;SDS011;30382;48.802;9.388;2022-10-30T09:10:28;10.73;;;4.83;;
44664;SDS011;30382;48.802;9.388;2022-10-30T09:13:13;13.60;;;4.33;;
44664;SDS011;30382;48.802;9.388;2022-10-30T09:16:00;9.40;;;4.90;;
44664;SDS011;30382;48.802;9.388;2022-10-30T09:18:46;7.80;;;4.03;;
44664;SDS011;30382;48.802;9.388;2022-10-30T09:21:31;9.10;;;4.53;;
44664;SDS011;30382;48.802;9.388;2022-10-30T09:24:15;7.00;;;4.87;;
44664;SDS011;30382;48.802;9.388;2022-10-30T09:27:09;7.63;;;4.10;;
44664;SDS011;30382;48.802;9.388;2022-10-30T09:30:02;13.53;;;4.70;;
44664;SDS011;30382;48.802;9.388;2022-10-30T09:32:52;7.83;;;4.33;;
44664;SDS011;30382;48.802;9.388;2022-10-30T09:35:38;14.83;;;4.70;;
44664;SDS011;30382;48.802;9.388;2022-10-30T09:38:22;9.47;;;4.13;;
44664;SDS011;30382;48.802;9.388;2022-10-30T09:44:20;9.10;;;4.43;;
44664;SDS011;30382;48.802;9.388;2022-10-30T09:47:25;7.13;;;3.57;;
44664;SDS011;30382;48.802;9.388;2022-10-30T09:50:24;5.50;;;3.43;;
44664;SDS011;30382;48.802;9.388;2022-10-30T09:53:24;8.23;;;4.13;;
44664;SDS011;30382;48.802;9.388;2022-10-30T09:56:13;8.73;;;4.03;;
44664;SDS011;30382;48.802;9.388;2022-10-30T09:59:07;6.13;;;3.80;;
44664;SDS011;30382;48.802;9.388;2022-10-30T10:02:00;10.03;;;4.43;;
44664;SDS011;30382;48.802;9.388;2022-10-30T10:04:48;8.70;;;4.80;;
44664;SDS011;30382;48.802;9.388;2022-10-30T10:07:55;8.77;;;4.40;;
44664;SDS011;30382;48.802;9.388;2022-10-30T10:11:13;5.77;;;3.57;;
44664;SDS011;30382;48.802;9.388;2022-10-30T10:14:03;8.70;;;5.23;;
44664;SDS011;30382;48.802;9.388;2022-10-30T10:16:52;7.57;;;4.43;;
44664;SDS011;30382;48.802;9.388;2022-10-30T10:19:42;8.83;;;4.40;;
44664;SDS011;30382;48.802;9.388;2022-10-30T10:26:06;5.50;;;4.10;;
44664;SDS011;30382;48.802;9.388;2022-10-30T10:29:01;9.03;;;4.60;;
44664;SDS011;30382;48.802;9.388;2022-10-30T10:34:56;7.27;;;4.20;;
44664;SDS011;30382;48.802;9.388;2022-10-30T10:43:48;7.63;;;4.33;;
44664;SDS011;30382;48.802;9.388;2022-10-30T10:49:48;7.03;;;4.13;;
44664;SDS011;30382;48.802;9.388;2022-10-30T10:55:21;11.07;;;4.00;;
44664;SDS011;30382;48.802;9.388;2022-10-30T10:58:09;6.63;;;4.23;;
44664;SDS011;30382;48.802;9.388;2022-10-30T11:00:56;8.27;;;3.47;;
44664;SDS011;30382;48.802;9.388;2022-10-30T11:03:48;5.40;;;3.90;;
44664;SDS011;30382;48.802;9.388;2022-10-30T11:06:37;7.10;;;3.30;;
44664;SDS011;30382;48.802;9.388;2022-10-30T11:09:23;8.23;;;3.40;;
44664;SDS011;30382;48.802;9.388;2022-10-30T11:12:09;4.93;;;3.60;;
44664;SDS011;30382;48.802;9.388;2022-10-30T11:14:53;10.47;;;3.70;;
44664;SDS011;30382;48.802;9.388;2022-10-30T11:17:39;8.73;;;4.57;;
44664;SDS011;30382;48.802;9.388;2022-10-30T11:21:09;6.43;;;3.53;;
44664;SDS011;30382;48.802;9.388;2022-10-30T11:23:37;7.33;;;4.30;;
44664;SDS011;30382;48.802;9.388;2022-10-30T11:29:13;10.73;;;4.43;;
44664;SDS011;30382;48.802;9.388;2022-10-30T11:31:58;5.47;;;4.23;;
44664;SDS011;30382;48.802;9.388;2022-10-30T11:34:50;10.13;;;7.40;;
44664;SDS011;30382;48.802;9.388;2022-10-30T11:37:43;9.90;;;5.77;;
44664;SDS011;30382;48.802;9.388;2022-10-30T11:40:27;9.00;;;4.80;;
44664;SDS011;30382;48.802;9.388;2022-10-30T11:43:11;8.90;;;4.33;;
44664;SDS011;30382;48.802;9.388;2022-10-30T11:45:57;5.77;;;3.47;;
44664;SDS011;30382;48.802;9.388;2022-10-30T11:48:42;4.10;;;3.70;;
44664;SDS011;30382;48.802;9.388;2022-10-30T11:51:35;9.30;;;4.17;;
44664;SDS011;30382;48.802;9.388;2022-10-30T11:54:20;7.40;;;4.27;;
44664;SDS011;30382;48.802;9.388;2022-10-30T11:57:10;6.17;;;4.23;;
44664;SDS011;30382;48.802;9.388;2022-10-30T11:59:57;7.03;;;4.03;;
44664;SDS011;30382;48.802;9.388;2022-10-30T12:02:42;8.53;;;4.43;;
44664;SDS011;30382;48.802;9.388;2022-10-30T12:05:29;7.47;;;3.60;;
44664;SDS011;30382;48.802;9.388;2022-10-30T12:08:15;8.10;;;3.87;;
44664;SDS011;30382;48.802;9.388;2022-10-30T12:11:00;7.60;;;4.43;;
44664;SDS011;30382;48.802;9.388;2022-10-30T12:13:45;4.50;;;3.87;;
44664;SDS011;30382;48.802;9.388;2022-10-30T12:16:29;8.73;;;3.87;;
44664;SDS011;30382;48.802;9.388;2022-10-30T12:19:15;5.70;;;4.30;;
44664;SDS011;30382;48.802;9.388;2022-10-30T12:22:01;5.90;;;3.90;;
44664;SDS011;30382;48.802;9.388;2022-10-30T12:24:45;6.23;;;4.50;;
44664;SDS011;30382;48.802;9.388;2022-10-30T12:27:30;6.50;;;4.10;;
44664;SDS011;30382;48.802;9.388;2022-10-30T12:30:18;4.47;;;3.80;;
44664;SDS011;30382;48.802;9.388;2022-10-30T12:35:48;5.70;;;4.03;;
44664;SDS011;30382;48.802;9.388;2022-10-30T12:38:37;6.90;;;3.97;;
44664;SDS011;30382;48.802;9.388;2022-10-30T12:41:28;8.87;;;4.13;;
44664;SDS011;30382;48.802;9.388;2022-10-30T12:55:44;6.90;;;4.00;;
44664;SDS011;30382;48.802;9.388;2022-10-30T12:58:32;4.63;;;3.93;;
44664;SDS011;30382;48.802;9.388;2022-10-30T13:01:22;6.57;;;4.40;;
44664;SDS011;30382;48.802;9.388;2022-10-30T13:04:21;7.40;;;3.90;;
44664;SDS011;30382;48.802;9.388;2022-10-30T13:12:45;11.03;;;4.53;;
44664;SDS011;30382;48.802;9.388;2022-10-30T13:15:37;7.90;;;4.37;;
44664;SDS011;30382;48.802;9.388;2022-10-30T13:18:24;3.90;;;3.33;;
44664;SDS011;30382;48.802;9.388;2022-10-30T13:24:09;4.70;;;3.50;;
44664;SDS011;30382;48.802;9.388;2022-10-30T13:27:04;5.70;;;3.70;;
44664;SDS011;30382;48.802;9.388;2022-10-30T13:29:58;7.27;;;3.93;;
44664;SDS011;30382;48.802;9.388;2022-10-30T13:35:34;6.53;;;3.70;;
44664;SDS011;30382;48.802;9.388;2022-10-30T13:41:21;7.00;;;3.60;;
44664;SDS011;30382;48.802;9.388;2022-10-30T13:49:58;5.70;;;4.10;;
44664;SDS011;30382;48.802;9.388;2022-10-30T13:52:45;8.10;;;3.90;;
44664;SDS011;30382;48.802;9.388;2022-10-30T13:55:33;7.40;;;3.80;;
44664;SDS011;30382;48.802;9.388;2022-10-30T14:07:23;9.47;;;4.40;;
44664;SDS011;30382;48.802;9.388;2022-10-30T14:10:21;8.43;;;5.30;;
44664;SDS011;30382;48.802;9.388;2022-10-30T14:16:00;6.40;;;3.73;;
44664;SDS011;30382;48.802;9.388;2022-10-30T14:18:57;7.37;;;4.00;;
44664;SDS011;30382;48.802;9.388;2022-10-30T14:21:58;8.40;;;4.63;;
44664;SDS011;30382;48.802;9.388;2022-10-30T14:24:43;5.03;;;4.10;;
44664;SDS011;30382;48.802;9.388;2022-10-30T14:27:31;8.40;;;4.77;;
44664;SDS011;30382;48.802;9.388;2022-10-30T14:30:18;8.27;;;4.77;;
44664;SDS011;30382;48.802;9.388;2022-10-30T14:33:03;8.80;;;4.90;;
44664;SDS011;30382;48.802;9.388;2022-10-30T14:35:52;8.50;;;5.47;;
44664;SDS011;30382;48.802;9.388;2022-10-30T14:41:40;9.80;;;5.80;;
44664;SDS011;30382;48.802;9.388;2022-10-30T14:44:38;6.63;;;4.83;;
44664;SDS011;30382;48.802;9.388;2022-10-30T14:58:35;7.80;;;3.83;;
44664;SDS011;30382;48.802;9.388;2022-10-30T15:01:27;6.27;;;4.13;;
44664;SDS011;30382;48.802;9.388;2022-10-30T15:04:16;5.67;;;3.73;;
44664;SDS011;30382;48.802;9.388;2022-10-30T15:16:00;6.40;;;3.80;;
44664;SDS011;30382;48.802;9.388;2022-10-30T15:18:45;4.30;;;3.53;;
44664;SDS011;30382;48.802;9.388;2022-10-30T15:21:32;8.77;;;4.30;;
44664;SDS011;30382;48.802;9.388;2022-10-30T15:24:19;7.17;;;5.30;;
44664;SDS011;30382;48.802;9.388;2022-10-30T15:27:04;7.37;;;4.30;;
44664;SDS011;30382;48.802;9.388;2022-10-30T15:29:50;8.43;;;4.70;;
44664;SDS011;30382;48.802;9.388;2022-10-30T15:32:39;11.47;;;5.67;;
44664;SDS011;30382;48.802;9.388;2022-10-30T15:35:24;8.63;;;3.60;;
44664;SDS011;30382;48.802;9.388;2022-10-30T15:38:09;5.10;;;3.90;;
44664;SDS011;30382;48.802;9.388;2022-10-30T15:40:57;8.40;;;4.20;;
44664;SDS011;30382;48.802;9.388;2022-10-30T15:43:42;8.50;;;5.30;;
44664;SDS011;30382;48.802;9.388;2022-10-30T15:46:27;10.73;;;5.60;;
44664;SDS011;30382;48.802;9.388;2022-10-30T15:49:15;6.63;;;5.37;;
44664;SDS011;30382;48.802;9.388;2022-10-30T15:55:06;7.30;;;4.83;;
44664;SDS011;30382;48.802;9.388;2022-10-30T15:57:52;7.47;;;4.83;;
44664;SDS011;30382;48.802;9.388;2022-10-30T16:00:37;10.33;;;4.83;;
44664;SDS011;30382;48.802;9.388;2022-10-30T16:03:21;7.37;;;4.60;;
44664;SDS011;30382;48.802;9.388;2022-10-30T16:06:15;9.83;;;5.90;;
44664;SDS011;30382;48.802;9.388;2022-10-30T16:09:02;5.50;;;4.30;;
44664;SDS011;30382;48.802;9.388;2022-10-30T16:11:47;8.90;;;5.27;;
44664;SDS011;30382;48.802;9.388;2022-10-30T16:14:32;7.80;;;4.63;;
44664;SDS011;30382;48.802;9.388;2022-10-30T16:17:17;7.53;;;4.43;;
44664;SDS011;30382;48.802;9.388;2022-10-30T16:20:02;15.80;;;5.57;;
44664;SDS011;30382;48.802;9.388;2022-10-30T16:22:46;7.93;;;5.93;;
44664;SDS011;30382;48.802;9.388;2022-10-30T16:25:31;9.83;;;5.60;;
44664;SDS011;30382;48.802;9.388;2022-10-30T16:28:24;6.40;;;4.47;;
44664;SDS011;30382;48.802;9.388;2022-10-30T16:31:09;8.30;;;4.37;;
44664;SDS011;30382;48.802;9.388;2022-10-30T16:33:58;8.60;;;3.53;;
44664;SDS011;30382;48.802;9.388;2022-10-30T16:36:43;4.40;;;4.00;;
44664;SDS011;30382;48.802;9.388;2022-10-30T16:39:27;7.83;;;5.37;;
44664;SDS011;30382;48.802;9.388;2022-10-30T16:42:18;9.40;;;5.80;;
44664;SDS011;30382;48.802;9.388;2022-10-30T16:47:55;10.93;;;5.07;;
44664;SDS011;30382;48.802;9.388;2022-10-30T16:50:41;11.83;;;4.47;;
44664;SDS011;30382;48.802;9.388;2022-10-30T16:53:25;8.87;;;4.70;;
44664;SDS011;30382;48.802;9.388;2022-10-30T16:56:13;5.23;;;4.70;;
44664;SDS011;30382;48.802;9.388;2022-10-30T16:59:13;10.40;;;4.67;;
44664;SDS011;30382;48.802;9.388;2022-10-30T17:01:59;7.73;;;4.70;;
44664;SDS011;30382;48.802;9.388;2022-10-30T17:04:50;10.13;;;4.93;;
44664;SDS011;30382;48.802;9.388;2022-10-30T17:07:34;8.10;;;5.17;;
44664;SDS011;30382;48.802;9.388;2022-10-30T17:10:31;8.40;;;4.77;;
44664;SDS011;30382;48.802;9.388;2022-10-30T17:14:17;7.07;;;4.77;;
44664;SDS011;30382;48.802;9.388;2022-10-30T17:16:30;13.97;;;5.67;;
44664;SDS011;30382;48.802;9.388;2022-10-30T17:22:16;11.03;;;6.07;;
44664;SDS011;30382;48.802;9.388;2022-10-30T17:25:15;11.37;;;6.70;;
44664;SDS011;30382;48.802;9.388;2022-10-30T17:30:51;14.50;;;6.23;;
44664;SDS011;30382;48.802;9.388;2022-10-30T17:33:36;13.40;;;6.17;;
44664;SDS011;30382;48.802;9.388;2022-10-30T17:36:20;12.70;;;6.10;;
44664;SDS011;30382;48.802;9.388;2022-10-30T17:39:05;13.57;;;4.70;;
44664;SDS011;30382;48.802;9.388;2022-10-30T17:41:49;11.00;;;5.97;;
44664;SDS011;30382;48.802;9.388;2022-10-30T17:44:34;8.30;;;5.57;;
44664;SDS011;30382;48.802;9.388;2022-10-30T17:47:19;8.30;;;6.27;;
44664;SDS011;30382;48.802;9.388;2022-10-30T17:50:04;9.90;;;5.70;;
44664;SDS011;30382;48.802;9.388;2022-10-30T17:52:49;11.30;;;5.73;;
44664;SDS011;30382;48.802;9.388;2022-10-30T17:55:33;9.97;;;6.37;;
44664;SDS011;30382;48.802;9.388;2022-10-30T17:58:19;8.00;;;5.77;;
44664;SDS011;30382;48.802;9.388;2022-10-30T18:01:03;11.70;;;5.80;;
44664;SDS011;30382;48.802;9.388;2022-10-30T18:03:48;7.70;;;6.03;;
44664;SDS011;30382;48.802;9.388;2022-10-30T18:06:32;9.60;;;5.60;;
44664;SDS011;30382;48.802;9.388;2022-10-30T18:09:17;6.73;;;4.60;;
44664;SDS011;30382;48.802;9.388;2022-10-30T18:12:02;7.83;;;5.60;;
44664;SDS011;30382;48.802;9.388;2022-10-30T18:14:46;8.17;;;5.10;;
44664;SDS011;30382;48.802;9.388;2022-10-30T18:17:30;11.00;;;6.27;;
44664;SDS011;30382;48.802;9.388;2022-10-30T18:20:15;9.33;;;5.53;;
44664;SDS011;30382;48.802;9.388;2022-10-30T18:22:59;12.70;;;5.00;;
44664;SDS011;30382;48.802;9.388;2022-10-30T18:25:43;10.67;;;5.53;;
44664;SDS011;30382;48.802;9.388;2022-10-30T18:28:27;9.03;;;5.27;;
44664;SDS011;30382;48.802;9.388;2022-10-30T18:31:12;11.33;;;5.20;;
44664;SDS011;30382;48.802;9.388;2022-10-30T18:33:57;9.60;;;5.70;;
44664;SDS011;30382;48.802;9.388;2022-10-30T18:36:41;12.23;;;4.83;;
44664;SDS011;30382;48.802;9.388;2022-10-30T18:39:26;9.03;;;5.20;;
44664;SDS011;30382;48.802;9.388;2022-10-30T18:42:10;8.10;;;4.77;;
44664;SDS011;30382;48.802;9.388;2022-10-30T18:44:54;13.03;;;5.30;;
44664;SDS011;30382;48.802;9.388;2022-10-30T18:47:39;7.50;;;4.77;;
44664;SDS011;30382;48.802;9.388;2022-10-30T18:50:23;9.03;;;4.63;;
44664;SDS011;30382;48.802;9.388;2022-10-30T18:53:13;7.50;;;4.83;;